VTBS/BKK METAR and TAF weather

Enter ICAO airport designator
Station Type Date Time Source
VTBS METAR 2021/09/23 17:30 UTC NOAA

VTBS 231730Z 27005KT 9999 FEW020 SCT050 27/24 Q1009 NOSIG


Station Type Date Time Source
VTBS Decoded METAR 2021/09/23 17:30 UTC NOAA

Chon Buri, Thailand (VTBS) 13-22N 100-59E 2M
Sep 23, 2021 - 01:30 PM EDT / 2021.09.23 1730 UTC
Wind: from the W (270 degrees) at 6 MPH (5 KT):0
Visibility: greater than 7 mile(s):0
Sky conditions: partly cloudy
Temperature: 80 F (27 C)
Dew Point: 75 F (24 C)
Relative Humidity: 83%
Pressure (altimeter): 29.80 in. Hg (1009 hPa)
ob: VTBS 231730Z 27005KT 9999 FEW020 SCT050 27/24 Q1009 NOSIG
cycle: 17

Station Type Date Time Source
VTBS TAF 2021/09/23 18:00 UTC NOAA

TAF VTBS 231700Z 2318/2424 25005KT 9999 FEW020 SCT100
TEMPO 2411/2417 32010KT 4000 TSRA FEW018CB SCT030 BKN100

Example: see airport list